sensor_id;sensor_type;location;lat;lon;timestamp;pressure;altitude;pressure_sealevel;temperature;humidity
25759;BME280;13604;52.496;13.456;2022-08-14T00:00:12;101165.97;;;21.57;90.92
25759;BME280;13604;52.496;13.456;2022-08-14T00:02:38;101160.31;;;21.52;91.03
25759;BME280;13604;52.496;13.456;2022-08-14T00:05:06;101158.97;;;21.48;91.76
25759;BME280;13604;52.496;13.456;2022-08-14T00:07:32;101159.59;;;21.42;92.98
25759;BME280;13604;52.496;13.456;2022-08-14T00:09:59;101177.44;;;21.40;92.80
25759;BME280;13604;52.496;13.456;2022-08-14T00:12:24;101174.56;;;21.33;93.35
25759;BME280;13604;52.496;13.456;2022-08-14T00:14:51;101172.38;;;21.29;93.75
25759;BME280;13604;52.496;13.456;2022-08-14T00:17:17;101176.31;;;21.25;93.97
25759;BME280;13604;52.496;13.456;2022-08-14T00:19:42;101168.41;;;21.15;94.17
25759;BME280;13604;52.496;13.456;2022-08-14T00:22:08;101173.31;;;21.10;95.01
25759;BME280;13604;52.496;13.456;2022-08-14T00:24:33;101171.16;;;21.05;95.11
25759;BME280;13604;52.496;13.456;2022-08-14T00:26:58;101174.78;;;21.04;95.31
25759;BME280;13604;52.496;13.456;2022-08-14T00:29:23;101167.97;;;21.02;95.49
25759;BME280;13604;52.496;13.456;2022-08-14T00:31:49;101165.59;;;20.99;95.99
25759;BME280;13604;52.496;13.456;2022-08-14T00:34:17;101160.91;;;20.93;96.51
25759;BME280;13604;52.496;13.456;2022-08-14T00:36:42;101163.41;;;20.94;97.15
25759;BME280;13604;52.496;13.456;2022-08-14T00:39:12;101167.34;;;20.90;97.54
25759;BME280;13604;52.496;13.456;2022-08-14T00:41:38;101166.00;;;20.86;98.01
25759;BME280;13604;52.496;13.456;2022-08-14T00:44:03;101157.13;;;20.78;98.30
25759;BME280;13604;52.496;13.456;2022-08-14T00:46:29;101165.22;;;20.76;99.07
25759;BME280;13604;52.496;13.456;2022-08-14T00:48:54;101159.94;;;20.76;99.63
25759;BME280;13604;52.496;13.456;2022-08-14T00:51:20;101158.56;;;20.72;99.76
25759;BME280;13604;52.496;13.456;2022-08-14T00:53:45;101155.31;;;20.78;100.00
25759;BME280;13604;52.496;13.456;2022-08-14T00:56:14;101150.31;;;20.75;100.00
25759;BME280;13604;52.496;13.456;2022-08-14T00:58:40;101147.13;;;20.71;100.00
25759;BME280;13604;52.496;13.456;2022-08-14T01:01:10;101151.06;;;20.67;100.00
25759;BME280;13604;52.496;13.456;2022-08-14T01:03:38;101154.84;;;20.65;100.00
25759;BME280;13604;52.496;13.456;2022-08-14T01:06:06;101139.13;;;20.63;100.00
25759;BME280;13604;52.496;13.456;2022-08-14T01:08:33;101150.13;;;20.59;100.00
25759;BME280;13604;52.496;13.456;2022-08-14T01:10:59;101143.47;;;20.55;100.00
25759;BME280;13604;52.496;13.456;2022-08-14T01:13:28;101143.63;;;20.53;100.00
25759;BME280;13604;52.496;13.456;2022-08-14T01:15:59;101147.13;;;20.54;100.00
25759;BME280;13604;52.496;13.456;2022-08-14T01:18:26;101133.72;;;20.55;100.00
25759;BME280;13604;52.496;13.456;2022-08-14T01:21:10;101140.69;;;20.56;100.00
25759;BME280;13604;52.496;13.456;2022-08-14T01:23:42;101141.38;;;20.58;100.00
25759;BME280;13604;52.496;13.456;2022-08-14T01:26:08;101132.16;;;20.62;100.00
25759;BME280;13604;52.496;13.456;2022-08-14T01:28:34;101133.81;;;20.63;100.00
25759;BME280;13604;52.496;13.456;2022-08-14T01:31:13;101131.19;;;20.63;100.00
25759;BME280;13604;52.496;13.456;2022-08-14T01:33:41;101129.22;;;20.65;100.00
25759;BME280;13604;52.496;13.456;2022-08-14T01:36:09;101142.53;;;20.74;100.00
25759;BME280;13604;52.496;13.456;2022-08-14T01:38:36;101135.44;;;20.74;100.00
25759;BME280;13604;52.496;13.456;2022-08-14T01:41:04;101144.19;;;20.75;100.00
25759;BME280;13604;52.496;13.456;2022-08-14T01:43:31;101146.84;;;20.75;100.00
25759;BME280;13604;52.496;13.456;2022-08-14T01:46:03;101138.22;;;20.73;100.00
25759;BME280;13604;52.496;13.456;2022-08-14T01:48:36;101136.56;;;20.71;100.00
25759;BME280;13604;52.496;13.456;2022-08-14T01:51:02;101141.00;;;20.71;100.00
25759;BME280;13604;52.496;13.456;2022-08-14T01:53:28;101149.50;;;20.75;100.00
25759;BME280;13604;52.496;13.456;2022-08-14T01:55:58;101141.56;;;20.75;100.00
25759;BME280;13604;52.496;13.456;2022-08-14T01:58:26;101142.38;;;20.75;100.00
25759;BME280;13604;52.496;13.456;2022-08-14T02:00:52;101136.25;;;20.75;100.00
25759;BME280;13604;52.496;13.456;2022-08-14T02:03:28;101139.41;;;20.78;100.00
25759;BME280;13604;52.496;13.456;2022-08-14T02:05:55;101142.06;;;20.78;100.00
25759;BME280;13604;52.496;13.456;2022-08-14T02:08:25;101133.97;;;20.80;100.00
25759;BME280;13604;52.496;13.456;2022-08-14T02:10:52;101134.81;;;20.80;100.00
25759;BME280;13604;52.496;13.456;2022-08-14T02:13:38;101129.66;;;20.79;100.00
25759;BME280;13604;52.496;13.456;2022-08-14T02:16:04;101119.53;;;20.74;100.00
25759;BME280;13604;52.496;13.456;2022-08-14T02:18:30;101129.00;;;20.77;100.00
25759;BME280;13604;52.496;13.456;2022-08-14T02:20:55;101129.00;;;20.77;100.00
25759;BME280;13604;52.496;13.456;2022-08-14T02:23:22;101125.34;;;20.78;100.00
25759;BME280;13604;52.496;13.456;2022-08-14T02:25:48;101118.56;;;20.75;100.00
25759;BME280;13604;52.496;13.456;2022-08-14T02:28:13;101129.00;;;20.77;100.00
25759;BME280;13604;52.496;13.456;2022-08-14T02:30:39;101124.38;;;20.79;100.00
25759;BME280;13604;52.496;13.456;2022-08-14T02:33:05;101116.44;;;20.79;100.00
25759;BME280;13604;52.496;13.456;2022-08-14T02:35:31;101119.53;;;20.74;100.00
25759;BME280;13604;52.496;13.456;2022-08-14T02:37:57;101121.22;;;20.75;100.00
25759;BME280;13604;52.496;13.456;2022-08-14T02:40:22;101109.94;;;20.73;100.00
25759;BME280;13604;52.496;13.456;2022-08-14T02:42:47;101111.59;;;20.74;100.00
25759;BME280;13604;52.496;13.456;2022-08-14T02:45:13;101117.13;;;20.81;100.00
25759;BME280;13604;52.496;13.456;2022-08-14T02:47:39;101112.66;;;20.81;100.00
25759;BME280;13604;52.496;13.456;2022-08-14T02:50:05;101106.53;;;20.81;100.00
25759;BME280;13604;52.496;13.456;2022-08-14T02:52:30;101094.28;;;20.80;100.00
25759;BME280;13604;52.496;13.456;2022-08-14T02:54:58;101105.09;;;20.86;100.00
25759;BME280;13604;52.496;13.456;2022-08-14T02:57:25;101094.28;;;20.80;100.00
25759;BME280;13604;52.496;13.456;2022-08-14T02:59:52;101102.91;;;20.82;100.00
25759;BME280;13604;52.496;13.456;2022-08-14T03:02:17;101093.00;;;20.84;100.00
25759;BME280;13604;52.496;13.456;2022-08-14T03:04:44;101092.47;;;20.80;100.00
25759;BME280;13604;52.496;13.456;2022-08-14T03:07:09;101094.97;;;20.82;100.00
25759;BME280;13604;52.496;13.456;2022-08-14T03:09:38;101085.50;;;20.79;100.00
25759;BME280;13604;52.496;13.456;2022-08-14T03:12:04;101089.81;;;20.80;100.00
25759;BME280;13604;52.496;13.456;2022-08-14T03:14:29;101086.31;;;20.80;100.00
25759;BME280;13604;52.496;13.456;2022-08-14T03:16:57;101089.44;;;20.75;100.00
25759;BME280;13604;52.496;13.456;2022-08-14T03:19:23;101092.09;;;20.75;100.00
25759;BME280;13604;52.496;13.456;2022-08-14T03:21:48;101091.41;;;20.73;100.00
25759;BME280;13604;52.496;13.456;2022-08-14T03:24:13;101092.81;;;20.67;100.00
25759;BME280;13604;52.496;13.456;2022-08-14T03:26:41;101093.16;;;20.64;100.00
25759;BME280;13604;52.496;13.456;2022-08-14T03:29:07;101094.28;;;20.62;100.00
25759;BME280;13604;52.496;13.456;2022-08-14T03:31:33;101093.28;;;20.63;100.00
25759;BME280;13604;52.496;13.456;2022-08-14T03:34:00;101092.22;;;20.56;100.00
25759;BME280;13604;52.496;13.456;2022-08-14T03:36:27;101085.94;;;20.57;100.00
25759;BME280;13604;52.496;13.456;2022-08-14T03:38:56;101084.28;;;20.56;100.00
25759;BME280;13604;52.496;13.456;2022-08-14T03:41:25;101092.22;;;20.56;100.00
25759;BME280;13604;52.496;13.456;2022-08-14T03:43:56;101082.31;;;20.58;100.00
25759;BME280;13604;52.496;13.456;2022-08-14T03:46:23;101085.25;;;20.55;100.00
25759;BME280;13604;52.496;13.456;2022-08-14T03:48:51;101093.19;;;20.55;100.00
25759;BME280;13604;52.496;13.456;2022-08-14T03:51:18;101097.06;;;20.60;100.00
25759;BME280;13604;52.496;13.456;2022-08-14T03:53:44;101089.56;;;20.56;100.00
25759;BME280;13604;52.496;13.456;2022-08-14T03:56:12;101096.31;;;20.50;100.00
25759;BME280;13604;52.496;13.456;2022-08-14T03:58:50;101090.72;;;20.53;100.00
25759;BME280;13604;52.496;13.456;2022-08-14T04:01:18;101085.56;;;20.52;100.00
25759;BME280;13604;52.496;13.456;2022-08-14T04:03:46;101078.75;;;20.49;100.00
25759;BME280;13604;52.496;13.456;2022-08-14T04:06:11;101071.25;;;20.45;100.00
25759;BME280;13604;52.496;13.456;2022-08-14T04:08:38;101067.19;;;20.50;100.00
25759;BME280;13604;52.496;13.456;2022-08-14T04:11:05;101067.47;;;20.47;100.00
25759;BME280;13604;52.496;13.456;2022-08-14T04:13:32;101062.75;;;20.51;100.00
25759;BME280;13604;52.496;13.456;2022-08-14T04:15:58;101058.72;;;20.47;100.00
25759;BME280;13604;52.496;13.456;2022-08-14T04:18:24;101058.56;;;20.48;100.00
25759;BME280;13604;52.496;13.456;2022-08-14T04:20:49;101060.38;;;20.48;100.00
25759;BME280;13604;52.496;13.456;2022-08-14T04:23:15;101062.75;;;20.51;100.00
25759;BME280;13604;52.496;13.456;2022-08-14T04:25:40;101066.22;;;20.51;100.00
25759;BME280;13604;52.496;13.456;2022-08-14T04:28:06;101067.06;;;20.52;100.00
25759;BME280;13604;52.496;13.456;2022-08-14T04:30:32;101068.25;;;20.57;100.00
25759;BME280;13604;52.496;13.456;2022-08-14T04:33:04;101060.31;;;20.57;100.00
25759;BME280;13604;52.496;13.456;2022-08-14T04:35:29;101069.63;;;20.61;100.00
25759;BME280;13604;52.496;13.456;2022-08-14T04:37:54;101066.69;;;20.64;100.00
25759;BME280;13604;52.496;13.456;2022-08-14T04:40:38;101068.03;;;20.68;100.00
25759;BME280;13604;52.496;13.456;2022-08-14T04:43:22;101068.41;;;20.74;100.00
25759;BME280;13604;52.496;13.456;2022-08-14T04:46:03;101059.16;;;20.78;100.00
25759;BME280;13604;52.496;13.456;2022-08-14T04:48:29;101067.34;;;20.84;100.00
25759;BME280;13604;52.496;13.456;2022-08-14T04:50:55;101058.44;;;20.85;100.00
25759;BME280;13604;52.496;13.456;2022-08-14T04:53:22;101059.31;;;20.94;100.00
25759;BME280;13604;52.496;13.456;2022-08-14T04:55:48;101046.09;;;20.94;100.00
25759;BME280;13604;52.496;13.456;2022-08-14T04:58:18;101070.50;;;21.05;100.00
25759;BME280;13604;52.496;13.456;2022-08-14T05:00:45;101068.06;;;21.12;100.00
25759;BME280;13604;52.496;13.456;2022-08-14T05:03:14;101062.25;;;21.26;100.00
25759;BME280;13604;52.496;13.456;2022-08-14T05:05:40;101066.75;;;21.34;100.00
25759;BME280;13604;52.496;13.456;2022-08-14T05:08:09;101057.38;;;21.39;100.00
25759;BME280;13604;52.496;13.456;2022-08-14T05:10:39;101052.81;;;21.50;100.00
25759;BME280;13604;52.496;13.456;2022-08-14T05:13:05;101059.28;;;21.55;100.00
25759;BME280;13604;52.496;13.456;2022-08-14T05:15:32;101053.06;;;21.64;99.61
25759;BME280;13604;52.496;13.456;2022-08-14T05:18:06;101055.91;;;21.71;99.24
25759;BME280;13604;52.496;13.456;2022-08-14T05:20:33;101052.97;;;21.82;98.71
25759;BME280;13604;52.496;13.456;2022-08-14T05:22:59;101054.78;;;21.82;97.97
25759;BME280;13604;52.496;13.456;2022-08-14T05:25:25;101048.22;;;21.94;97.93
25759;BME280;13604;52.496;13.456;2022-08-14T05:27:51;101036.81;;;22.01;97.88
25759;BME280;13604;52.496;13.456;2022-08-14T05:30:16;101047.63;;;22.08;96.86
25759;BME280;13604;52.496;13.456;2022-08-14T05:32:42;101037.56;;;22.20;96.15
25759;BME280;13604;52.496;13.456;2022-08-14T05:35:07;101046.06;;;22.31;95.40
25759;BME280;13604;52.496;13.456;2022-08-14T05:37:35;101036.13;;;22.41;94.84
25759;BME280;13604;52.496;13.456;2022-08-14T05:40:00;101030.31;;;22.46;94.83
25759;BME280;13604;52.496;13.456;2022-08-14T05:42:26;101028.84;;;22.51;94.62
25759;BME280;13604;52.496;13.456;2022-08-14T05:44:51;101023.19;;;22.55;95.16
25759;BME280;13604;52.496;13.456;2022-08-14T05:47:16;101015.25;;;22.63;94.58
25759;BME280;13604;52.496;13.456;2022-08-14T05:49:42;101019.56;;;22.72;93.84
25759;BME280;13604;52.496;13.456;2022-08-14T05:52:07;101029.19;;;22.89;92.95
25759;BME280;13604;52.496;13.456;2022-08-14T05:54:33;101031.50;;;23.00;92.44
25759;BME280;13604;52.496;13.456;2022-08-14T05:56:58;101035.84;;;23.17;92.27
25759;BME280;13604;52.496;13.456;2022-08-14T05:59:23;101036.16;;;23.31;91.19
25759;BME280;13604;52.496;13.456;2022-08-14T06:01:48;101036.28;;;23.37;90.18
25759;BME280;13604;52.496;13.456;2022-08-14T06:04:14;101028.28;;;23.45;89.32
25759;BME280;13604;52.496;13.456;2022-08-14T06:06:39;101030.94;;;23.45;87.76
25759;BME280;13604;52.496;13.456;2022-08-14T06:09:05;101031.78;;;23.46;88.39
25759;BME280;13604;52.496;13.456;2022-08-14T06:11:33;101035.94;;;23.56;88.12
25759;BME280;13604;52.496;13.456;2022-08-14T06:13:58;101043.03;;;23.64;86.78
25759;BME280;13604;52.496;13.456;2022-08-14T06:16:24;101041.22;;;23.65;86.48
25759;BME280;13604;52.496;13.456;2022-08-14T06:18:49;101029.13;;;23.62;86.27
25759;BME280;13604;52.496;13.456;2022-08-14T06:21:15;101025.09;;;23.66;86.00
25759;BME280;13604;52.496;13.456;2022-08-14T06:23:41;101002.31;;;23.72;85.93
25759;BME280;13604;52.496;13.456;2022-08-14T06:26:06;101013.03;;;23.86;85.58
25759;BME280;13604;52.496;13.456;2022-08-14T06:28:32;101005.94;;;23.79;85.52
25759;BME280;13604;52.496;13.456;2022-08-14T06:30:57;101007.88;;;23.93;85.60
25759;BME280;13604;52.496;13.456;2022-08-14T06:33:22;101010.66;;;24.00;84.42
25759;BME280;13604;52.496;13.456;2022-08-14T06:35:48;101001.97;;;24.06;84.29
25759;BME280;13604;52.496;13.456;2022-08-14T06:38:20;101008.38;;;24.19;83.61
25759;BME280;13604;52.496;13.456;2022-08-14T06:40:46;101005.88;;;24.26;83.88
25759;BME280;13604;52.496;13.456;2022-08-14T06:43:12;100998.47;;;24.36;84.01
25759;BME280;13604;52.496;13.456;2022-08-14T06:45:39;101008.63;;;24.41;81.67
25759;BME280;13604;52.496;13.456;2022-08-14T06:48:13;101009.72;;;24.46;81.52
25759;BME280;13604;52.496;13.456;2022-08-14T06:50:39;101016.78;;;24.62;78.68
25759;BME280;13604;52.496;13.456;2022-08-14T06:53:04;101007.06;;;24.69;79.09
25759;BME280;13604;52.496;13.456;2022-08-14T06:55:29;101010.97;;;24.81;79.03
25759;BME280;13604;52.496;13.456;2022-08-14T06:57:55;101002.59;;;24.84;78.23
25759;BME280;13604;52.496;13.456;2022-08-14T07:00:22;101001.41;;;24.87;78.61
25759;BME280;13604;52.496;13.456;2022-08-14T07:02:49;101003.53;;;24.91;78.52
25759;BME280;13604;52.496;13.456;2022-08-14T07:05:33;100998.16;;;24.99;77.81
25759;BME280;13604;52.496;13.456;2022-08-14T07:08:15;100998.16;;;24.99;76.69
25759;BME280;13604;52.496;13.456;2022-08-14T07:10:46;100993.28;;;25.03;76.56
25759;BME280;13604;52.496;13.456;2022-08-14T07:13:14;100999.75;;;25.23;76.86
25759;BME280;13604;52.496;13.456;2022-08-14T07:15:40;100986.25;;;25.39;75.88
25759;BME280;13604;52.496;13.456;2022-08-14T07:18:07;100984.66;;;25.30;74.95
25759;BME280;13604;52.496;13.456;2022-08-14T07:20:33;100990.00;;;25.45;75.05
25759;BME280;13604;52.496;13.456;2022-08-14T07:23:01;100982.56;;;25.55;76.30
25759;BME280;13604;52.496;13.456;2022-08-14T07:25:27;100984.06;;;25.72;76.54
25759;BME280;13604;52.496;13.456;2022-08-14T07:27:53;100982.25;;;25.94;74.77
25759;BME280;13604;52.496;13.456;2022-08-14T07:30:18;100976.44;;;25.91;70.46
25759;BME280;13604;52.496;13.456;2022-08-14T07:32:44;100970.56;;;25.95;71.57
25759;BME280;13604;52.496;13.456;2022-08-14T07:35:09;100978.38;;;26.18;72.36
25759;BME280;13604;52.496;13.456;2022-08-14T07:37:34;100976.88;;;26.52;68.49
25759;BME280;13604;52.496;13.456;2022-08-14T07:40:04;100974.03;;;26.53;67.86
25759;BME280;13604;52.496;13.456;2022-08-14T07:42:29;100975.66;;;26.75;68.20
25759;BME280;13604;52.496;13.456;2022-08-14T07:44:57;100973.03;;;27.03;67.95
25759;BME280;13604;52.496;13.456;2022-08-14T07:47:22;100970.38;;;27.38;64.71
25759;BME280;13604;52.496;13.456;2022-08-14T07:50:12;100975.84;;;27.64;64.31
25759;BME280;13604;52.496;13.456;2022-08-14T07:52:39;100970.75;;;27.76;63.90
25759;BME280;13604;52.496;13.456;2022-08-14T07:55:05;100962.13;;;27.87;62.18
25759;BME280;13604;52.496;13.456;2022-08-14T07:57:31;100955.81;;;28.01;59.02
25759;BME280;13604;52.496;13.456;2022-08-14T07:59:56;100961.81;;;28.16;59.56
25759;BME280;13604;52.496;13.456;2022-08-14T08:02:21;100957.13;;;28.32;58.88
25759;BME280;13604;52.496;13.456;2022-08-14T08:04:50;100949.09;;;28.58;58.09
25759;BME280;13604;52.496;13.456;2022-08-14T08:07:18;100942.88;;;28.97;57.52
25759;BME280;13604;52.496;13.456;2022-08-14T08:09:48;100960.00;;;29.16;56.17
25759;BME280;13604;52.496;13.456;2022-08-14T08:12:16;100953.94;;;29.40;55.44
25759;BME280;13604;52.496;13.456;2022-08-14T08:14:42;100958.44;;;29.53;56.15
25759;BME280;13604;52.496;13.456;2022-08-14T08:17:08;100956.94;;;29.70;54.83
25759;BME280;13604;52.496;13.456;2022-08-14T08:19:34;100943.56;;;29.95;52.07
25759;BME280;13604;52.496;13.456;2022-08-14T08:21:59;100940.69;;;30.03;52.05
25759;BME280;13604;52.496;13.456;2022-08-14T08:24:27;100934.25;;;30.60;52.53
25759;BME280;13604;52.496;13.456;2022-08-14T08:26:52;100936.34;;;31.01;48.56
25759;BME280;13604;52.496;13.456;2022-08-14T08:29:19;100935.91;;;31.41;48.09
25759;BME280;13604;52.496;13.456;2022-08-14T08:31:49;100933.31;;;32.12;44.79
25759;BME280;13604;52.496;13.456;2022-08-14T08:34:15;100927.84;;;32.19;44.65
25759;BME280;13604;52.496;13.456;2022-08-14T08:36:42;100937.41;;;32.15;44.04
25759;BME280;13604;52.496;13.456;2022-08-14T08:39:08;100935.16;;;32.42;42.68
25759;BME280;13604;52.496;13.456;2022-08-14T08:41:44;100938.44;;;32.44;42.53
25759;BME280;13604;52.496;13.456;2022-08-14T08:44:11;100938.69;;;32.54;42.25
25759;BME280;13604;52.496;13.456;2022-08-14T08:46:39;100929.78;;;32.53;42.99
25759;BME280;13604;52.496;13.456;2022-08-14T08:49:07;100922.03;;;32.57;41.98
25759;BME280;13604;52.496;13.456;2022-08-14T08:51:36;100917.69;;;32.56;42.53
25759;BME280;13604;52.496;13.456;2022-08-14T08:54:09;100915.22;;;32.43;42.50
25759;BME280;13604;52.496;13.456;2022-08-14T08:56:38;100915.25;;;33.01;42.03
25759;BME280;13604;52.496;13.456;2022-08-14T08:59:16;100914.06;;;32.62;40.93
25759;BME280;13604;52.496;13.456;2022-08-14T09:01:46;100907.25;;;32.25;41.81
25759;BME280;13604;52.496;13.456;2022-08-14T09:04:11;100903.63;;;32.89;43.07
25759;BME280;13604;52.496;13.456;2022-08-14T09:06:45;100905.09;;;33.32;40.29
25759;BME280;13604;52.496;13.456;2022-08-14T09:09:25;100898.72;;;33.94;38.49
25759;BME280;13604;52.496;13.456;2022-08-14T09:11:53;100891.06;;;34.53;37.20
25759;BME280;13604;52.496;13.456;2022-08-14T09:14:23;100900.22;;;34.86;36.54
25759;BME280;13604;52.496;13.456;2022-08-14T09:16:49;100896.91;;;35.44;35.66
25759;BME280;13604;52.496;13.456;2022-08-14T09:19:15;100893.94;;;35.72;34.62
25759;BME280;13604;52.496;13.456;2022-08-14T09:21:40;100886.41;;;35.80;33.19
25759;BME280;13604;52.496;13.456;2022-08-14T09:24:07;100884.00;;;36.10;31.96
25759;BME280;13604;52.496;13.456;2022-08-14T09:26:33;100867.09;;;36.30;31.47
25759;BME280;13604;52.496;13.456;2022-08-14T09:28:59;100871.31;;;37.05;31.86
25759;BME280;13604;52.496;13.456;2022-08-14T09:31:25;100874.31;;;37.08;31.59
25759;BME280;13604;52.496;13.456;2022-08-14T09:37:01;100868.72;;;36.73;31.93
25759;BME280;13604;52.496;13.456;2022-08-14T09:45:09;100867.88;;;36.67;31.56
25759;BME280;13604;52.496;13.456;2022-08-14T09:47:50;100866.00;;;37.40;30.83
25759;BME280;13604;52.496;13.456;2022-08-14T09:52:55;100864.44;;;37.90;29.64
25759;BME280;13604;52.496;13.456;2022-08-14T09:55:23;100852.47;;;39.21;28.12
25759;BME280;13604;52.496;13.456;2022-08-14T09:57:50;100846.13;;;40.09;26.69
25759;BME280;13604;52.496;13.456;2022-08-14T10:00:16;100841.81;;;40.03;24.21
25759;BME280;13604;52.496;13.456;2022-08-14T10:02:56;100832.56;;;40.99;24.59
25759;BME280;13604;52.496;13.456;2022-08-14T10:05:27;100834.69;;;41.26;22.69
25759;BME280;13604;52.496;13.456;2022-08-14T10:07:54;100831.00;;;40.93;23.59
25759;BME280;13604;52.496;13.456;2022-08-14T10:10:49;100828.66;;;40.87;24.15
25759;BME280;13604;52.496;13.456;2022-08-14T10:13:22;100835.16;;;41.47;22.60
25759;BME280;13604;52.496;13.456;2022-08-14T10:15:48;100824.63;;;41.59;22.37
25759;BME280;13604;52.496;13.456;2022-08-14T10:18:18;100819.44;;;41.58;22.04
25759;BME280;13604;52.496;13.456;2022-08-14T10:20:57;100817.91;;;42.58;20.81
25759;BME280;13604;52.496;13.456;2022-08-14T10:23:25;100812.59;;;42.20;21.12
25759;BME280;13604;52.496;13.456;2022-08-14T10:26:03;100818.84;;;43.52;19.82
25759;BME280;13604;52.496;13.456;2022-08-14T10:29:04;100807.06;;;43.30;20.29
25759;BME280;13604;52.496;13.456;2022-08-14T10:31:29;100806.66;;;43.22;19.82
25759;BME280;13604;52.496;13.456;2022-08-14T10:34:09;100804.38;;;43.02;20.75
25759;BME280;13604;52.496;13.456;2022-08-14T10:36:40;100797.91;;;42.16;19.73
25759;BME280;13604;52.496;13.456;2022-08-14T10:39:14;100794.69;;;41.82;20.58
25759;BME280;13604;52.496;13.456;2022-08-14T10:41:41;100788.44;;;42.41;20.94
25759;BME280;13604;52.496;13.456;2022-08-14T10:44:11;100775.69;;;43.22;19.86
25759;BME280;13604;52.496;13.456;2022-08-14T10:46:45;100776.22;;;43.10;19.80
25759;BME280;13604;52.496;13.456;2022-08-14T10:49:19;100769.31;;;43.13;19.64
25759;BME280;13604;52.496;13.456;2022-08-14T10:51:56;100767.47;;;43.67;19.09
25759;BME280;13604;52.496;13.456;2022-08-14T10:54:35;100771.88;;;43.76;18.25
25759;BME280;13604;52.496;13.456;2022-08-14T10:57:46;100754.00;;;43.87;19.13
25759;BME280;13604;52.496;13.456;2022-08-14T11:00:14;100759.13;;;44.51;18.19
25759;BME280;13604;52.496;13.456;2022-08-14T11:02:40;100757.91;;;44.35;18.34
25759;BME280;13604;52.496;13.456;2022-08-14T11:05:10;100751.63;;;42.97;18.76
25759;BME280;13604;52.496;13.456;2022-08-14T11:07:53;100756.53;;;43.53;19.31
25759;BME280;13604;52.496;13.456;2022-08-14T11:10:19;100747.38;;;44.76;18.20
25759;BME280;13604;52.496;13.456;2022-08-14T11:12:47;100752.06;;;45.02;17.23
25759;BME280;13604;52.496;13.456;2022-08-14T11:15:16;100741.03;;;44.50;19.12
25759;BME280;13604;52.496;13.456;2022-08-14T11:17:42;100741.72;;;44.16;18.68
25759;BME280;13604;52.496;13.456;2022-08-14T11:20:12;100741.09;;;43.88;18.96
25759;BME280;13604;52.496;13.456;2022-08-14T11:22:39;100736.53;;;44.14;18.66
25759;BME280;13604;52.496;13.456;2022-08-14T11:25:06;100746.13;;;44.34;18.32
25759;BME280;13604;52.496;13.456;2022-08-14T11:27:32;100742.94;;;44.41;18.37
25759;BME280;13604;52.496;13.456;2022-08-14T11:30:00;100738.63;;;44.91;17.87
25759;BME280;13604;52.496;13.456;2022-08-14T11:32:28;100742.00;;;45.49;17.85
25759;BME280;13604;52.496;13.456;2022-08-14T11:34:56;100736.66;;;46.37;16.12
25759;BME280;13604;52.496;13.456;2022-08-14T11:37:21;100735.78;;;46.87;15.26
25759;BME280;13604;52.496;13.456;2022-08-14T11:39:46;100741.78;;;47.42;14.46
25759;BME280;13604;52.496;13.456;2022-08-14T11:42:21;100736.94;;;47.39;13.83
25759;BME280;13604;52.496;13.456;2022-08-14T11:44:48;100725.66;;;47.90;14.65
25759;BME280;13604;52.496;13.456;2022-08-14T11:47:14;100717.59;;;48.21;14.44
25759;BME280;13604;52.496;13.456;2022-08-14T11:49:46;100721.97;;;48.86;13.15
25759;BME280;13604;52.496;13.456;2022-08-14T11:52:15;100721.09;;;48.98;12.94
25759;BME280;13604;52.496;13.456;2022-08-14T11:54:42;100724.69;;;48.99;13.26
25759;BME280;13604;52.496;13.456;2022-08-14T11:57:17;100710.69;;;49.67;13.38
25759;BME280;13604;52.496;13.456;2022-08-14T11:59:44;100714.41;;;50.06;13.74
25759;BME280;13604;52.496;13.456;2022-08-14T12:02:12;100713.03;;;49.80;13.19
25759;BME280;13604;52.496;13.456;2022-08-14T12:04:50;100702.72;;;50.47;12.44
25759;BME280;13604;52.496;13.456;2022-08-14T12:07:16;100715.56;;;50.20;12.81
25759;BME280;13604;52.496;13.456;2022-08-14T12:09:43;100697.81;;;49.74;12.50
25759;BME280;13604;52.496;13.456;2022-08-14T12:12:13;100692.56;;;50.36;13.04
25759;BME280;13604;52.496;13.456;2022-08-14T12:14:55;100694.06;;;49.98;13.10
25759;BME280;13604;52.496;13.456;2022-08-14T12:17:26;100681.59;;;49.13;12.90
25759;BME280;13604;52.496;13.456;2022-08-14T12:20:01;100681.56;;;50.04;13.76
25759;BME280;13604;52.496;13.456;2022-08-14T12:22:39;100673.34;;;50.27;12.80
25759;BME280;13604;52.496;13.456;2022-08-14T12:25:14;100681.00;;;49.83;13.22
25759;BME280;13604;52.496;13.456;2022-08-14T12:27:44;100674.06;;;49.42;13.59
25759;BME280;13604;52.496;13.456;2022-08-14T12:30:38;100666.31;;;48.76;13.50
25759;BME280;13604;52.496;13.456;2022-08-14T12:33:06;100661.16;;;46.92;15.00
25759;BME280;13604;52.496;13.456;2022-08-14T12:35:43;100655.84;;;48.81;13.47
25759;BME280;13604;52.496;13.456;2022-08-14T12:38:10;100651.78;;;48.91;13.97
25759;BME280;13604;52.496;13.456;2022-08-14T12:40:49;100653.44;;;49.24;13.18
25759;BME280;13604;52.496;13.456;2022-08-14T12:43:16;100647.22;;;48.99;12.99
25759;BME280;13604;52.496;13.456;2022-08-14T12:45:51;100647.00;;;49.82;13.70
25759;BME280;13604;52.496;13.456;2022-08-14T12:48:20;100634.47;;;50.23;12.32
25759;BME280;13604;52.496;13.456;2022-08-14T12:50:46;100637.44;;;50.15;12.34
25759;BME280;13604;52.496;13.456;2022-08-14T12:53:13;100632.13;;;48.96;13.08